Time;durP1;ratioP1;P1;durP2;ratioP2;P2;SDS_P1;SDS_P2;PMS_P1;PMS_P2;Temp;Humidity;BMP_temperature;BMP_pressure;BME280_temperature;BME280_humidity;BME280_pressure;Samples;Min_cycle;Max_cycle;Signal;HPM_P1;HPM_P2
2022/10/27 00:02:14;;;;;;;9.33;3.50;;;;;14.10;101537.00;;;;10324930;28;20199;-76
2022/10/27 00:07:16;;;;;;;5.47;3.10;;;;;13.90;101539.00;;;;10295355;28;20212;-76
2022/10/27 00:12:18;;;;;;;7.83;2.50;;;;;13.90;101536.00;;;;10285122;28;20200;-76
2022/10/27 00:17:20;;;;;;;8.10;2.53;;;;;13.80;101539.00;;;;10303986;28;20291;-76
2022/10/27 00:22:22;;;;;;;8.83;2.40;;;;;13.70;101542.00;;;;10291596;28;20203;-76
2022/10/27 00:27:23;;;;;;;9.00;3.40;;;;;13.70;101539.00;;;;10292192;28;20195;-76
2022/10/27 00:32:25;;;;;;;5.20;2.60;;;;;13.90;101549.00;;;;10317052;28;20203;-76
2022/10/27 00:37:28;;;;;;;7.83;2.57;;;;;14.00;101553.00;;;;10283106;28;20234;-76
2022/10/27 00:42:29;;;;;;;5.53;2.10;;;;;14.20;101554.00;;;;10311846;28;20192;-76
2022/10/27 00:47:34;;;;;;;7.30;2.20;;;;;14.40;101550.00;;;;10301235;28;20282;-76
2022/10/27 00:52:56;;;;;;;6.37;2.13;;;;;14.60;101551.00;;;;10286514;28;20203;-76
2022/10/27 00:58:03;;;;;;;7.90;2.03;;;;;14.80;101553.00;;;;10318301;28;20204;-76
2022/10/27 01:03:07;;;;;;;6.77;2.03;;;;;14.90;101555.00;;;;10267814;28;20246;-77
2022/10/27 01:08:09;;;;;;;5.32;2.03;;;;;14.90;101555.00;;;;10325894;28;20224;-78
2022/10/27 01:13:11;;;;;;;2.53;2.20;;;;;14.90;101560.00;;;;10295642;28;20219;-77
2022/10/27 01:18:22;;;;;;;7.43;2.27;;;;;14.90;101563.00;;;;10304282;28;20745;-77
2022/10/27 01:23:41;;;;;;;5.90;2.43;;;;;14.90;101559.00;;;;10333735;28;20192;-77
2022/10/27 01:29:17;;;;;;;4.65;2.35;;;;;14.90;101560.00;;;;10296942;28;20196;-77
2022/10/27 01:34:28;;;;;;;5.60;2.53;;;;;14.80;101555.00;;;;10304718;28;20188;-77
2022/10/27 01:39:44;;;;;;;7.40;2.00;;;;;14.70;101547.00;;;;10293658;28;20714;-77
2022/10/27 01:44:50;;;;;;;7.17;2.03;;;;;14.70;101558.00;;;;10311933;28;20183;-77
2022/10/27 01:49:55;;;;;;;1.60;1.10;;;;;14.80;101540.00;;;;10296220;28;20255;-77
2022/10/27 01:54:57;;;;;;;6.82;1.75;;;;;14.90;101537.00;;;;10280765;28;20228;-77
2022/10/27 02:00:03;;;;;;;4.87;1.33;;;;;15.00;101538.00;;;;10304270;28;20664;-77
2022/10/27 02:05:22;;;;;;;2.90;1.55;;;;;15.10;101533.00;;;;10296753;28;20209;-77
2022/10/27 02:10:28;;;;;;;3.30;1.23;;;;;15.10;101523.00;;;;10328424;28;20674;-77
2022/10/27 02:15:38;;;;;;;4.22;1.30;;;;;15.10;101527.00;;;;10283607;28;20205;-77
2022/10/27 02:20:44;;;;;;;5.65;1.38;;;;;15.10;101518.00;;;;10330037;28;20198;-77
2022/10/27 02:25:56;;;;;;;2.85;1.40;;;;;15.00;101524.00;;;;10307684;28;20643;-77
2022/10/27 02:30:59;;;;;;;4.83;1.40;;;;;14.90;101523.00;;;;10302869;28;20529;-77
2022/10/27 02:36:01;;;;;;;4.33;1.83;;;;;14.80;101510.00;;;;10289858;28;20582;-77
2022/10/27 02:41:03;;;;;;;4.83;1.70;;;;;14.80;101500.00;;;;10323568;28;20659;-77
2022/10/27 02:46:05;;;;;;;3.63;1.45;;;;;14.70;101498.00;;;;10327447;28;20244;-77
2022/10/27 02:51:07;;;;;;;2.10;1.10;;;;;14.50;101499.00;;;;10335436;28;20211;-77
2022/10/27 02:56:09;;;;;;;3.73;1.27;;;;;14.40;101495.00;;;;10279039;28;20616;-77
2022/10/27 03:01:11;;;;;;;4.32;1.60;;;;;14.30;101499.00;;;;10299822;28;20193;-77
2022/10/27 03:06:13;;;;;;;5.87;1.70;;;;;14.30;101482.00;;;;10331171;28;20302;-77
2022/10/27 03:11:15;;;;;;;2.90;1.33;;;;;14.20;101477.00;;;;10284080;28;20200;-77
2022/10/27 03:16:17;;;;;;;4.43;1.70;;;;;14.20;101471.00;;;;10294950;28;20232;-77
2022/10/27 03:21:19;;;;;;;4.13;1.83;;;;;14.30;101471.00;;;;10314476;28;20664;-77
2022/10/27 03:26:21;;;;;;;3.37;1.40;;;;;14.40;101459.00;;;;10311829;28;20251;-77
2022/10/27 03:31:23;;;;;;;2.93;1.73;;;;;14.50;101458.00;;;;10306067;28;20207;-77
2022/10/27 03:36:25;;;;;;;5.40;1.67;;;;;14.50;101457.00;;;;10284146;28;20205;-77
2022/10/27 03:41:27;;;;;;;3.67;1.50;;;;;14.50;101459.00;;;;10329324;28;20626;-77
2022/10/27 03:46:29;;;;;;;1.67;1.38;;;;;14.50;101471.00;;;;10315398;28;20243;-77
2022/10/27 03:51:31;;;;;;;3.30;1.63;;;;;14.50;101472.00;;;;10283579;28;20196;-77
2022/10/27 03:56:32;;;;;;;2.17;1.60;;;;;14.50;101474.00;;;;10320949;28;20714;-77
2022/10/27 04:01:35;;;;;;;3.00;1.42;;;;;14.60;101480.00;;;;10301999;28;20300;-77
2022/10/27 04:06:37;;;;;;;3.90;1.53;;;;;14.60;101477.00;;;;10334578;28;20719;-77
2022/10/27 04:11:39;;;;;;;2.93;1.17;;;;;14.60;101473.00;;;;10280836;28;20196;-77
2022/10/27 04:16:41;;;;;;;2.50;1.27;;;;;14.70;101463.00;;;;10317274;28;20205;-77
2022/10/27 04:21:43;;;;;;;2.30;1.00;;;;;14.80;101471.00;;;;10339309;28;20599;-77
2022/10/27 04:26:45;;;;;;;2.53;1.15;;;;;14.90;101476.00;;;;10294292;28;20216;-77
2022/10/27 04:31:47;;;;;;;2.47;1.60;;;;;15.00;101482.00;;;;10311135;28;20275;-77
2022/10/27 04:36:49;;;;;;;3.07;1.20;;;;;15.00;101480.00;;;;10303886;28;20268;-77
2022/10/27 04:41:51;;;;;;;2.17;1.17;;;;;15.00;101478.00;;;;10312225;28;20247;-77
2022/10/27 04:46:53;;;;;;;3.07;1.53;;;;;15.00;101489.00;;;;10289955;28;20197;-77
2022/10/27 04:51:54;;;;;;;2.03;1.40;;;;;15.00;101492.00;;;;10301317;28;20212;-77
2022/10/27 04:56:56;;;;;;;2.47;1.30;;;;;15.00;101477.00;;;;10287376;28;20220;-77
2022/10/27 05:01:58;;;;;;;4.07;1.30;;;;;15.00;101481.00;;;;10293777;28;20263;-77
2022/10/27 05:07:00;;;;;;;1.57;0.97;;;;;14.90;101482.00;;;;10299242;28;20212;-77
2022/10/27 05:12:02;;;;;;;4.23;0.93;;;;;14.90;101475.00;;;;10257602;28;20246;-78
2022/10/27 05:17:04;;;;;;;2.67;0.90;;;;;14.90;101480.00;;;;10288733;28;20199;-77
2022/10/27 05:22:06;;;;;;;2.53;0.90;;;;;14.80;101476.00;;;;10297757;28;20231;-78
2022/10/27 05:27:08;;;;;;;2.37;0.90;;;;;14.90;101474.00;;;;10288828;28;20647;-77
2022/10/27 05:32:10;;;;;;;2.47;1.00;;;;;14.90;101447.00;;;;10304518;28;20663;-77
2022/10/27 05:37:12;;;;;;;2.90;1.08;;;;;14.90;101450.00;;;;10278930;28;20285;-78
2022/10/27 05:42:14;;;;;;;5.07;1.40;;;;;15.00;101445.00;;;;10298867;28;20220;-77
2022/10/27 05:47:16;;;;;;;3.90;1.10;;;;;14.90;101455.00;;;;10318272;28;20263;-77
2022/10/27 05:52:17;;;;;;;2.13;0.80;;;;;15.00;101453.00;;;;10312227;28;20196;-77
2022/10/27 05:57:19;;;;;;;1.00;0.90;;;;;15.00;101443.00;;;;10312581;28;20355;-78
2022/10/27 06:02:21;;;;;;;3.97;0.90;;;;;15.00;101454.00;;;;10279728;28;20661;-77
2022/10/27 06:07:23;;;;;;;2.03;0.90;;;;;15.10;101441.00;;;;10334509;28;20220;-78
2022/10/27 06:12:25;;;;;;;1.40;0.57;;;;;15.10;101440.00;;;;10320294;28;20192;-77
2022/10/27 06:17:27;;;;;;;1.00;0.73;;;;;15.20;101435.00;;;;10338264;28;20204;-77
2022/10/27 06:22:29;;;;;;;2.88;0.88;;;;;15.30;101438.00;;;;10338325;28;20203;-77
2022/10/27 06:27:31;;;;;;;1.70;0.70;;;;;15.30;101431.00;;;;10328177;28;20203;-77
2022/10/27 06:32:37;;;;;;;4.20;1.00;;;;;15.50;101434.00;;;;10308570;28;20206;-77
2022/10/27 06:37:45;;;;;;;3.88;1.17;;;;;15.50;101435.00;;;;10315793;28;20205;-77
2022/10/27 06:42:49;;;;;;;1.15;0.70;;;;;15.50;101431.00;;;;10302383;28;20188;-77
2022/10/27 06:48:09;;;;;;;1.27;1.08;;;;;15.60;101437.00;;;;10322550;28;20200;-77
2022/10/27 06:53:11;;;;;;;1.60;0.80;;;;;15.80;101436.00;;;;10310731;28;20258;-77
2022/10/27 06:58:13;;;;;;;2.13;0.80;;;;;15.90;101430.00;;;;10313718;28;20615;-77
2022/10/27 07:03:15;;;;;;;1.48;0.73;;;;;16.00;101417.00;;;;10311854;28;20189;-77
2022/10/27 07:08:17;;;;;;;1.65;0.63;;;;;16.00;101428.00;;;;10264375;28;20212;-77
2022/10/27 07:13:19;;;;;;;2.80;1.00;;;;;16.10;101432.00;;;;10311837;28;20495;-77
2022/10/27 07:18:21;;;;;;;3.92;0.80;;;;;16.10;101440.00;;;;10304967;28;20208;-77
2022/10/27 07:23:22;;;;;;;1.27;0.70;;;;;16.10;101434.00;;;;10265594;28;20200;-77
2022/10/27 07:28:24;;;;;;;5.20;1.00;;;;;16.20;101421.00;;;;10309972;28;20246;-78
2022/10/27 07:33:26;;;;;;;5.57;1.00;;;;;16.40;101428.00;;;;10292743;28;20738;-77
2022/10/27 07:38:28;;;;;;;1.70;0.85;;;;;16.60;101423.00;;;;10327960;28;20270;-78
2022/10/27 07:43:30;;;;;;;4.13;0.82;;;;;16.90;101429.00;;;;10305531;28;20197;-78
2022/10/27 07:48:32;;;;;;;2.45;1.30;;;;;17.20;101413.00;;;;10296378;28;20185;-78
2022/10/27 07:53:34;;;;;;;3.40;1.00;;;;;17.50;101425.00;;;;10308950;28;20266;-77
2022/10/27 07:58:36;;;;;;;31.40;3.60;;;;;17.80;101418.00;;;;10274479;28;20223;-77
2022/10/27 08:03:38;;;;;;;2.53;0.98;;;;;17.90;101408.00;;;;10294447;28;20702;-77
2022/10/27 08:08:40;;;;;;;2.28;1.13;;;;;18.10;101409.00;;;;10302376;28;20705;-77
2022/10/27 08:13:41;;;;;;;2.67;1.25;;;;;18.20;101409.00;;;;10310150;28;20273;-77
2022/10/27 08:18:43;;;;;;;18.67;2.95;;;;;18.40;101411.00;;;;10287560;28;20691;-77
2022/10/27 08:23:45;;;;;;;5.82;1.98;;;;;18.60;101409.00;;;;10286257;28;20184;-77
2022/10/27 08:28:48;;;;;;;2.20;0.93;;;;;18.90;101408.00;;;;10280361;28;20235;-77
2022/10/27 08:33:51;;;;;;;4.28;0.98;;;;;19.00;101420.00;;;;10277621;28;20287;-77
2022/10/27 08:38:53;;;;;;;2.78;1.27;;;;;19.20;101422.00;;;;10314245;28;20239;-77
2022/10/27 08:44:18;;;;;;;2.10;1.05;;;;;19.60;101399.00;;;;10295411;28;20193;-77
2022/10/27 08:49:43;;;;;;;4.40;1.42;;;;;19.70;101377.00;;;;10296591;28;20193;-77
2022/10/27 08:54:52;;;;;;;4.38;1.45;;;;;19.80;101373.00;;;;10319564;28;20202;-77
2022/10/27 08:59:56;;;;;;;5.43;1.50;;;;;20.00;101380.00;;;;10287112;28;20867;-77
2022/10/27 09:05:13;;;;;;;3.00;1.15;;;;;20.00;101380.00;;;;10281339;28;20220;-77
2022/10/27 09:10:45;;;;;;;4.43;1.45;;;;;20.00;101378.00;;;;10291017;28;20231;-77
2022/10/27 09:15:50;;;;;;;5.60;1.45;;;;;20.30;101371.00;;;;10310202;28;20184;-77
2022/10/27 09:20:59;;;;;;;8.50;2.45;;;;;20.70;101377.00;;;;10320123;28;20218;-77
2022/10/27 09:26:02;;;;;;;7.05;1.85;;;;;21.10;101344.00;;;;10324475;28;20197;-77
2022/10/27 09:31:05;;;;;;;4.35;1.48;;;;;21.50;101352.00;;;;10310894;28;20193;-77
2022/10/27 09:36:13;;;;;;;5.90;1.60;;;;;21.90;101338.00;;;;10329233;28;20599;-77
2022/10/27 09:41:15;;;;;;;4.20;1.65;;;;;21.80;101337.00;;;;10322261;28;20191;-77
2022/10/27 09:46:22;;;;;;;3.15;1.35;;;;;21.90;101332.00;;;;10276729;28;20211;-77
2022/10/27 09:51:29;;;;;;;6.07;1.85;;;;;22.00;101349.00;;;;10325047;28;20207;-77
2022/10/27 09:56:35;;;;;;;8.07;1.80;;;;;21.90;101350.00;;;;10292356;28;20228;-77
2022/10/27 10:01:48;;;;;;;3.65;1.50;;;;;21.60;101338.00;;;;10324143;28;20211;-77
2022/10/27 10:06:53;;;;;;;2.78;1.40;;;;;21.70;101334.00;;;;10318367;28;20216;-77
2022/10/27 10:12:21;;;;;;;3.70;1.75;;;;;21.70;101324.00;;;;10309139;28;20189;-77
2022/10/27 10:17:26;;;;;;;3.83;2.05;;;;;21.90;101338.00;;;;10304530;28;20296;-77
2022/10/27 10:22:34;;;;;;;4.63;1.95;;;;;22.00;101338.00;;;;10310323;28;20196;-77
2022/10/27 10:27:47;;;;;;;6.15;1.83;;;;;22.30;101341.00;;;;10313612;28;20195;-77
2022/10/27 10:32:52;;;;;;;7.78;2.20;;;;;22.20;101346.00;;;;10326822;28;20200;-77
2022/10/27 10:37:55;;;;;;;5.13;2.00;;;;;22.00;101356.00;;;;10307538;28;20262;-77
2022/10/27 10:43:03;;;;;;;5.07;1.70;;;;;21.80;101357.00;;;;10318218;28;20287;-77
2022/10/27 10:48:18;;;;;;;5.75;1.70;;;;;22.00;101342.00;;;;10330813;28;20215;-77
2022/10/27 10:53:50;;;;;;;5.38;2.28;;;;;22.20;101342.00;;;;10317328;28;20690;-77
2022/10/27 10:59:01;;;;;;;5.93;2.67;;;;;22.30;101340.00;;;;10280669;28;20228;-77
2022/10/27 11:04:04;;;;;;;6.70;2.55;;;;;22.40;101339.00;;;;10309781;28;20193;-77
2022/10/27 11:09:09;;;;;;;10.02;2.67;;;;;22.40;101333.00;;;;10314240;28;20911;-77
2022/10/27 11:14:14;;;;;;;9.20;2.00;;;;;22.60;101323.00;;;;10326898;28;20203;-77
2022/10/27 11:19:19;;;;;;;4.97;1.73;;;;;22.80;101322.00;;;;10337272;28;20559;-77
2022/10/27 11:24:28;;;;;;;6.38;2.20;;;;;23.10;101310.00;;;;10277465;28;20196;-76
2022/10/27 11:29:50;;;;;;;4.68;2.50;;;;;23.50;101313.00;;;;10309551;28;20193;-77
2022/10/27 11:35:03;;;;;;;6.32;2.30;;;;;23.80;101304.00;;;;10330605;28;20188;-76
2022/10/27 11:40:28;;;;;;;14.25;3.38;;;;;23.80;101299.00;;;;10320853;28;20303;-77
2022/10/27 11:45:39;;;;;;;4.72;2.10;;;;;23.90;101283.00;;;;10321826;28;20195;-77
2022/10/27 11:50:45;;;;;;;8.15;2.60;;;;;23.90;101286.00;;;;10312279;28;20207;-77
2022/10/27 11:56:02;;;;;;;8.23;2.42;;;;;23.90;101286.00;;;;10282658;28;20204;-77
2022/10/27 12:01:35;;;;;;;6.88;2.55;;;;;23.90;101283.00;;;;10289852;28;20204;-77
2022/10/27 12:06:47;;;;;;;8.88;2.63;;;;;24.00;101282.00;;;;10324454;28;20287;-77
2022/10/27 12:12:08;;;;;;;3.33;2.03;;;;;24.00;101292.00;;;;10280535;28;20197;-77
2022/10/27 12:17:35;;;;;;;9.02;2.67;;;;;24.00;101283.00;;;;10314575;28;20297;-77
2022/10/27 12:22:54;;;;;;;6.70;2.40;;;;;24.00;101296.00;;;;10298041;28;20275;-77
2022/10/27 12:28:01;;;;;;;7.30;2.50;;;;;24.20;101298.00;;;;10291217;28;20280;-77
2022/10/27 12:33:21;;;;;;;4.72;2.30;;;;;24.60;101304.00;;;;10274831;28;20268;-77
2022/10/27 12:38:35;;;;;;;9.85;2.03;;;;;25.00;101308.00;;;;10309610;28;20214;-77
2022/10/27 12:43:43;;;;;;;11.88;2.50;;;;;24.90;101301.00;;;;10331231;28;20188;-76
2022/10/27 12:49:23;;;;;;;10.32;2.58;;;;;24.70;101290.00;;;;10314613;28;20204;-78
2022/10/27 12:54:28;;;;;;;8.77;2.53;;;;;24.40;101269.00;;;;10293862;28;20329;-77
2022/10/27 12:59:41;;;;;;;11.48;2.10;;;;;24.30;101260.00;;;;10312300;28;20259;-76
2022/10/27 13:05:01;;;;;;;13.88;2.92;;;;;24.10;101257.00;;;;10288036;28;20229;-76
2022/10/27 13:10:35;;;;;;;7.97;2.22;;;;;24.10;101242.00;;;;10323366;28;20200;-76
2022/10/27 13:15:42;;;;;;;11.02;2.42;;;;;24.20;101239.00;;;;10328076;28;20271;-77
2022/10/27 13:20:56;;;;;;;11.77;2.72;;;;;24.10;101240.00;;;;10324189;28;20359;-77
2022/10/27 13:26:25;;;;;;;6.50;3.03;;;;;24.10;101250.00;;;;10319243;28;20188;-77
2022/10/27 13:31:27;;;;;;;8.32;2.28;;;;;24.00;101239.00;;;;10297756;28;21204;-77
2022/10/27 13:36:29;;;;;;;4.40;2.40;;;;;23.90;101239.00;;;;10286414;28;20219;-78
2022/10/27 13:41:48;;;;;;;6.15;2.35;;;;;24.00;101238.00;;;;10285448;28;20206;-77
2022/10/27 13:47:02;;;;;;;9.27;2.22;;;;;24.10;101243.00;;;;10315531;28;20199;-77
2022/10/27 13:52:14;;;;;;;10.23;2.63;;;;;24.20;101247.00;;;;10324628;28;20247;-76
2022/10/27 13:57:48;;;;;;;7.28;1.85;;;;;24.50;101251.00;;;;10291752;28;20219;-77
2022/10/27 14:03:02;;;;;;;7.75;2.60;;;;;24.80;101266.00;;;;10324146;28;20207;-78
2022/10/27 14:08:19;;;;;;;6.97;2.40;;;;;24.00;101267.00;;;;10304150;28;20212;-77
2022/10/27 14:13:24;;;;;;;6.25;2.75;;;;;23.70;101276.00;;;;10308926;28;20200;-77
2022/10/27 14:18:36;;;;;;;9.27;2.30;;;;;23.30;101287.00;;;;10292459;28;20204;-77
2022/10/27 14:23:38;;;;;;;5.63;2.25;;;;;23.00;101281.00;;;;10324125;28;20246;-77
2022/10/27 14:28:46;;;;;;;7.50;2.95;;;;;22.70;101282.00;;;;10272415;28;20190;-77
2022/10/27 14:33:49;;;;;;;7.88;2.63;;;;;22.50;101281.00;;;;10314327;28;20247;-77
2022/10/27 14:39:05;;;;;;;8.00;2.70;;;;;22.50;101276.00;;;;10294257;28;20220;-77
2022/10/27 14:44:16;;;;;;;7.60;2.80;;;;;22.50;101270.00;;;;10296630;28;20196;-77
2022/10/27 14:49:49;;;;;;;5.50;2.53;;;;;23.60;101258.00;;;;10299528;28;20252;-77
2022/10/27 14:54:54;;;;;;;9.93;2.85;;;;;23.60;101266.00;;;;10283556;28;21002;-78
2022/10/27 14:59:58;;;;;;;5.88;2.55;;;;;24.20;101259.00;;;;10311801;28;20238;-77
2022/10/27 15:05:20;;;;;;;7.68;2.70;;;;;23.60;101270.00;;;;10277932;28;20586;-77
2022/10/27 15:10:23;;;;;;;5.00;2.22;;;;;23.00;101275.00;;;;10324350;28;20185;-77
2022/10/27 15:15:31;;;;;;;9.32;3.15;;;;;22.40;101270.00;;;;10291711;28;20193;-77
2022/10/27 15:20:33;;;;;;;7.97;2.78;;;;;22.10;101276.00;;;;10326233;28;20204;-77
2022/10/27 15:25:39;;;;;;;5.63;2.45;;;;;21.70;101279.00;;;;10331086;28;20188;-77
2022/10/27 15:30:42;;;;;;;8.02;2.78;;;;;21.40;101278.00;;;;10296502;28;20204;-77
2022/10/27 15:35:43;;;;;;;7.05;2.95;;;;;21.10;101283.00;;;;10289352;28;20218;-77
2022/10/27 15:40:47;;;;;;;9.00;3.20;;;;;20.90;101295.00;;;;10315166;28;20259;-77
2022/10/27 15:45:50;;;;;;;9.13;3.17;;;;;20.70;101289.00;;;;10284902;28;20659;-77
2022/10/27 15:51:02;;;;;;;13.82;3.42;;;;;20.50;101288.00;;;;10284170;28;20199;-77
2022/10/27 15:56:06;;;;;;;13.23;3.45;;;;;20.30;101299.00;;;;10300378;28;20287;-77
2022/10/27 16:01:32;;;;;;;8.02;2.88;;;;;20.10;101302.00;;;;10329028;28;20258;-77
2022/10/27 16:06:35;;;;;;;7.22;3.63;;;;;19.90;101306.00;;;;10296327;28;20227;-77
2022/10/27 16:11:41;;;;;;;10.95;3.47;;;;;19.60;101303.00;;;;10325216;28;20227;-76
2022/10/27 16:16:44;;;;;;;7.68;3.20;;;;;19.40;101306.00;;;;10312090;28;20687;-76
2022/10/27 16:21:46;;;;;;;7.15;3.38;;;;;19.10;101278.00;;;;10293971;28;20193;-77
2022/10/27 16:26:49;;;;;;;7.20;3.10;;;;;19.00;101287.00;;;;10288983;28;20196;-77
2022/10/27 16:31:51;;;;;;;13.10;3.35;;;;;18.80;101288.00;;;;10322124;28;20205;-77
2022/10/27 16:36:53;;;;;;;8.68;4.03;;;;;18.70;101288.00;;;;10295412;28;20211;-77
2022/10/27 16:41:55;;;;;;;7.55;4.10;;;;;18.60;101282.00;;;;10315658;28;20547;-77
2022/10/27 16:47:00;;;;;;;7.03;3.58;;;;;18.40;101286.00;;;;10312458;28;20255;-77
2022/10/27 16:52:02;;;;;;;9.25;4.13;;;;;18.20;101288.00;;;;10310686;28;20203;-77
2022/10/27 16:57:05;;;;;;;8.50;3.55;;;;;18.00;101275.00;;;;10290467;28;20220;-77
2022/10/27 17:02:09;;;;;;;10.55;4.22;;;;;18.00;101265.00;;;;10303900;28;20246;-77
2022/10/27 17:07:11;;;;;;;12.38;4.72;;;;;17.80;101261.00;;;;10302204;28;21203;-77
2022/10/27 17:12:13;;;;;;;7.72;4.30;;;;;17.70;101272.00;;;;10296780;28;20192;-77
2022/10/27 17:17:15;;;;;;;13.60;5.60;;;;;17.60;101270.00;;;;10313320;28;20214;-77
2022/10/27 17:22:17;;;;;;;8.40;4.20;;;;;17.60;101266.00;;;;10298839;28;20254;-77
2022/10/27 17:27:18;;;;;;;12.02;4.28;;;;;17.60;101261.00;;;;10298816;28;20199;-77
2022/10/27 17:32:20;;;;;;;10.23;4.50;;;;;17.60;101263.00;;;;10308761;28;20193;-77
2022/10/27 17:37:22;;;;;;;7.22;3.80;;;;;17.60;101260.00;;;;10296123;28;20231;-77
2022/10/27 17:42:24;;;;;;;11.20;4.03;;;;;17.70;101258.00;;;;10308326;28;20207;-77
2022/10/27 17:47:30;;;;;;;6.22;4.05;;;;;17.80;101269.00;;;;10326960;28;20247;-77
2022/10/27 17:52:32;;;;;;;8.70;4.68;;;;;17.90;101264.00;;;;10258098;28;20204;-77
2022/10/27 17:57:34;;;;;;;9.90;3.75;;;;;17.90;101254.00;;;;10300357;28;20212;-77
2022/10/27 18:02:36;;;;;;;11.23;4.28;;;;;17.90;101260.00;;;;10300135;28;20402;-77
2022/10/27 18:07:38;;;;;;;17.67;4.90;;;;;17.90;101268.00;;;;10292083;28;20292;-77
2022/10/27 18:12:40;;;;;;;9.95;4.47;;;;;17.90;101260.00;;;;10306271;28;20244;-77
2022/10/27 18:17:46;;;;;;;9.00;4.30;;;;;18.00;101267.00;;;;10319600;28;20204;-77
2022/10/27 18:22:49;;;;;;;11.23;4.38;;;;;18.00;101270.00;;;;10322062;28;20198;-77
2022/10/27 18:27:51;;;;;;;8.50;4.80;;;;;17.90;101267.00;;;;10294217;28;20656;-77
2022/10/27 18:32:54;;;;;;;9.10;4.13;;;;;18.00;101258.00;;;;10316685;28;20192;-77
2022/10/27 18:37:56;;;;;;;9.52;4.32;;;;;18.10;101253.00;;;;10302503;28;20211;-77
2022/10/27 18:42:58;;;;;;;7.03;4.38;;;;;18.10;101262.00;;;;10334942;28;20208;-77
2022/10/27 18:48:02;;;;;;;11.02;4.47;;;;;18.20;101259.00;;;;10304733;28;20545;-77
2022/10/27 18:53:04;;;;;;;12.93;4.63;;;;;18.20;101258.00;;;;10298661;28;20198;-77
2022/10/27 18:58:07;;;;;;;8.40;4.03;;;;;18.20;101257.00;;;;10303076;28;20221;-77
2022/10/27 19:03:09;;;;;;;10.60;5.13;;;;;18.20;101263.00;;;;10319878;28;20189;-77
2022/10/27 19:08:13;;;;;;;7.55;3.60;;;;;18.20;101250.00;;;;10344381;28;20217;-76
2022/10/27 19:13:15;;;;;;;9.07;4.10;;;;;18.30;101240.00;;;;10310737;28;20200;-77
2022/10/27 19:18:17;;;;;;;11.20;4.65;;;;;18.50;101232.00;;;;10319460;28;20204;-77
2022/10/27 19:23:19;;;;;;;8.93;4.35;;;;;18.60;101227.00;;;;10310083;28;20208;-77
2022/10/27 19:28:21;;;;;;;8.02;4.38;;;;;18.60;101224.00;;;;10306675;28;20195;-77
2022/10/27 19:33:23;;;;;;;8.75;3.85;;;;;18.50;101227.00;;;;10302645;28;20643;-77
2022/10/27 19:38:25;;;;;;;10.35;4.32;;;;;18.50;101222.00;;;;10303930;28;20212;-77
2022/10/27 19:43:28;;;;;;;7.10;3.90;;;;;18.40;101229.00;;;;10302792;28;20892;-76
2022/10/27 19:48:30;;;;;;;12.25;3.58;;;;;18.30;101225.00;;;;10301750;28;20191;-77
2022/10/27 19:53:32;;;;;;;8.45;3.50;;;;;18.30;101237.00;;;;10291380;28;20204;-77
2022/10/27 19:58:34;;;;;;;7.95;3.53;;;;;18.40;101237.00;;;;10321379;28;20208;-77
2022/10/27 20:03:36;;;;;;;11.82;3.58;;;;;18.50;101240.00;;;;10289068;28;20236;-77
2022/10/27 20:08:39;;;;;;;9.43;4.43;;;;;18.50;101224.00;;;;10284649;28;20263;-77
2022/10/27 20:13:45;;;;;;;13.98;4.75;;;;;18.70;101225.00;;;;10275813;28;20251;-77
2022/10/27 20:18:47;;;;;;;11.27;4.07;;;;;18.70;101224.00;;;;10300687;28;20260;-77
2022/10/27 20:23:49;;;;;;;9.20;3.95;;;;;18.80;101219.00;;;;10330373;28;20188;-77
2022/10/27 20:28:51;;;;;;;8.90;4.03;;;;;18.90;101224.00;;;;10297719;28;20208;-77
2022/10/27 20:33:54;;;;;;;9.45;3.80;;;;;18.80;101211.00;;;;10314466;28;20195;-77
2022/10/27 20:38:56;;;;;;;9.05;3.25;;;;;18.80;101204.00;;;;10302546;28;20553;-77
2022/10/27 20:44:00;;;;;;;8.02;4.20;;;;;18.90;101211.00;;;;10319486;28;20274;-77
2022/10/27 20:49:02;;;;;;;9.15;3.22;;;;;18.90;101209.00;;;;10297354;28;20193;-76
2022/10/27 20:54:04;;;;;;;7.93;3.42;;;;;18.90;101206.00;;;;10305723;28;20200;-77
2022/10/27 20:59:06;;;;;;;7.60;3.72;;;;;18.90;101207.00;;;;10298006;28;20254;-77
2022/10/27 21:04:11;;;;;;;7.13;3.15;;;;;18.90;101207.00;;;;10308884;28;20189;-77
2022/10/27 21:09:14;;;;;;;9.15;3.50;;;;;19.00;101222.00;;;;10304000;28;20204;-77
2022/10/27 21:14:16;;;;;;;7.43;3.13;;;;;19.00;101206.00;;;;10332492;28;20184;-77
2022/10/27 21:19:18;;;;;;;12.40;3.85;;;;;18.90;101204.00;;;;10339214;28;20305;-77
2022/10/27 21:24:21;;;;;;;12.68;4.15;;;;;18.80;101194.00;;;;10307211;28;20428;-77
2022/10/27 21:29:23;;;;;;;12.43;3.78;;;;;18.70;101191.00;;;;10321600;28;20659;-77
2022/10/27 21:34:25;;;;;;;8.50;3.33;;;;;18.60;101183.00;;;;10314265;28;20274;-77
2022/10/27 21:39:27;;;;;;;6.53;3.35;;;;;18.40;101181.00;;;;10305582;28;20208;-77
2022/10/27 21:44:29;;;;;;;6.95;3.33;;;;;18.40;101178.00;;;;10315401;28;20209;-77
2022/10/27 21:49:31;;;;;;;9.75;4.32;;;;;18.30;101182.00;;;;10310687;28;20735;-77
2022/10/27 21:54:33;;;;;;;9.75;3.00;;;;;18.20;101179.00;;;;10321986;28;20234;-77
2022/10/27 21:59:35;;;;;;;5.15;3.17;;;;;18.20;101167.00;;;;10345725;28;20204;-77
2022/10/27 22:04:37;;;;;;;6.70;3.70;;;;;18.30;101173.00;;;;10291138;28;20220;-77
2022/10/27 22:09:38;;;;;;;10.30;3.08;;;;;18.30;101167.00;;;;10297844;28;20207;-77
2022/10/27 22:14:40;;;;;;;10.02;3.90;;;;;18.40;101166.00;;;;10300446;28;20202;-77
2022/10/27 22:19:42;;;;;;;10.25;3.35;;;;;18.50;101166.00;;;;10306241;28;20658;-77
2022/10/27 22:24:44;;;;;;;8.77;3.35;;;;;18.40;101165.00;;;;10349447;28;20192;-77
2022/10/27 22:29:46;;;;;;;10.85;3.40;;;;;18.40;101163.00;;;;10301240;28;20196;-77
2022/10/27 22:34:48;;;;;;;8.38;3.13;;;;;18.30;101167.00;;;;10312219;28;20196;-77
2022/10/27 22:39:50;;;;;;;8.75;3.60;;;;;18.30;101167.00;;;;10286498;28;20205;-77
2022/10/27 22:44:52;;;;;;;10.23;3.58;;;;;18.20;101169.00;;;;10311510;28;20193;-77
2022/10/27 22:49:53;;;;;;;14.43;3.08;;;;;18.10;101164.00;;;;10315573;28;20199;-77
2022/10/27 22:54:58;;;;;;;9.68;3.83;;;;;18.00;101170.00;;;;10309094;28;20203;-77
2022/10/27 23:00:00;;;;;;;7.72;3.42;;;;;18.00;101157.00;;;;10321977;28;20216;-76
2022/10/27 23:05:02;;;;;;;9.10;3.33;;;;;18.00;101166.00;;;;10308031;28;20208;-76
2022/10/27 23:10:05;;;;;;;10.95;3.55;;;;;18.00;101173.00;;;;10283480;28;20215;-77
2022/10/27 23:15:07;;;;;;;10.38;4.10;;;;;18.10;101170.00;;;;10310565;28;20188;-77
2022/10/27 23:20:09;;;;;;;6.63;3.38;;;;;18.10;101179.00;;;;10302037;28;20218;-77
2022/10/27 23:25:11;;;;;;;10.95;3.70;;;;;18.10;101184.00;;;;10332115;28;20203;-76
2022/10/27 23:30:12;;;;;;;10.32;3.35;;;;;18.10;101182.00;;;;10303942;28;20861;-76
2022/10/27 23:35:14;;;;;;;8.50;3.47;;;;;17.90;101184.00;;;;10313474;28;20204;-77
2022/10/27 23:40:16;;;;;;;6.53;3.60;;;;;17.90;101187.00;;;;10317124;28;20211;-77
2022/10/27 23:45:19;;;;;;;13.25;3.53;;;;;17.70;101194.00;;;;10301328;28;20226;-77
2022/10/27 23:50:21;;;;;;;11.82;3.55;;;;;17.60;101189.00;;;;10300536;28;20599;-76
2022/10/27 23:55:23;;;;;;;7.90;3.40;;;;;17.60;101190.00;;;;10280887;28;20579;-77
